Time;durP1;ratioP1;P1;durP2;ratioP2;P2;SDS_P1;SDS_P2;PMS_P1;PMS_P2;Temp;Humidity;BMP_temperature;BMP_pressure;BME280_temperature;BME280_humidity;BME280_pressure;Samples;Min_cycle;Max_cycle;Signal;HPM_P1;HPM_P2
2023/10/16 00:02:13;;;;;;;3.77;3.47;;;;;;;18.75;77.24;98778.56;5093609;28;20206;-65
2023/10/16 00:04:43;;;;;;;3.03;2.83;;;;;;;18.71;76.60;98790.94;5093704;28;20204;-65
2023/10/16 00:07:12;;;;;;;4.20;4.00;;;;;;;18.68;76.22;98787.72;5093885;28;20669;-65
2023/10/16 00:09:40;;;;;;;7.13;3.00;;;;;;;18.58;76.20;98795.34;5093349;28;20737;-64
2023/10/16 00:12:07;;;;;;;3.77;3.03;;;;;;;18.56;75.27;98797.25;5093240;28;20238;-64
2023/10/16 00:14:35;;;;;;;3.13;2.83;;;;;;;18.50;75.33;98807.25;5092874;28;20245;-65
2023/10/16 00:17:08;;;;;;;3.53;2.40;;;;;;;18.42;74.73;98812.13;5092986;28;20258;-64
2023/10/16 00:19:37;;;;;;;2.90;2.80;;;;;;;18.34;74.16;98813.50;5093379;28;20257;-65
2023/10/16 00:22:13;;;;;;;4.23;2.13;;;;;;;18.25;74.18;98808.13;5092806;28;20228;-65
2023/10/16 00:24:45;;;;;;;5.27;1.73;;;;;;;18.10;74.21;98824.75;5093236;28;20632;-65
2023/10/16 00:27:14;;;;;;;2.30;2.30;;;;;;;18.08;73.79;98821.47;5092947;28;20216;-65
2023/10/16 00:29:42;;;;;;;2.47;2.27;;;;;;;18.01;73.92;98826.25;5092174;28;20192;-65
2023/10/16 00:32:11;;;;;;;2.60;2.40;;;;;;;17.92;73.83;98826.03;5092825;28;20295;-65
2023/10/16 00:34:39;;;;;;;2.87;2.03;;;;;;;17.80;74.03;98828.53;5093219;28;20659;-65
2023/10/16 00:37:07;;;;;;;7.33;2.40;;;;;;;17.70;74.57;98834.47;5092825;28;20200;-65
2023/10/16 00:39:35;;;;;;;1.33;1.33;;;;;;;17.66;74.61;98833.03;5092632;28;20663;-64
2023/10/16 00:42:02;;;;;;;2.13;1.70;;;;;;;17.61;74.50;98845.47;5093251;28;20653;-65
2023/10/16 00:44:33;;;;;;;4.10;1.87;;;;;;;17.52;74.15;98849.47;5092818;28;20283;-64
2023/10/16 00:47:03;;;;;;;8.73;1.60;;;;;;;17.43;74.18;98855.25;5092692;28;20198;-64
2023/10/16 00:49:34;;;;;;;1.00;1.00;;;;;;;17.34;74.42;98855.88;5092466;28;20687;-66
2023/10/16 00:52:03;;;;;;;1.13;1.13;;;;;;;17.28;74.50;98861.47;5092287;28;20322;-64
2023/10/16 00:54:33;;;;;;;2.10;1.30;;;;;;;17.27;74.60;98859.81;5094393;28;20196;-64
2023/10/16 00:57:04;;;;;;;1.67;1.57;;;;;;;17.21;74.47;98860.22;5092388;28;20200;-66
2023/10/16 00:59:32;;;;;;;3.60;1.87;;;;;;;17.19;74.19;98872.41;5092471;28;20203;-65
2023/10/16 01:02:12;;;;;;;1.33;1.23;;;;;;;17.20;74.25;98867.16;5092917;28;20203;-65
2023/10/16 01:04:41;;;;;;;1.00;1.00;;;;;;;17.19;74.24;98869.81;5092373;28;20202;-65
2023/10/16 01:07:09;;;;;;;1.30;1.30;;;;;;;17.14;74.16;98877.06;5091916;28;20238;-65
2023/10/16 01:09:36;;;;;;;1.03;1.03;;;;;;;17.11;74.06;98877.28;5092449;28;20854;-65
2023/10/16 01:12:07;;;;;;;1.27;1.20;;;;;;;17.11;73.98;98892.81;5092628;28;20278;-64
2023/10/16 01:14:35;;;;;;;1.67;1.57;;;;;;;17.07;73.88;98894.78;5091924;28;20709;-65
2023/10/16 01:17:02;;;;;;;0.83;0.83;;;;;;;17.07;73.64;98901.72;5088585;28;20195;-64
2023/10/16 01:19:29;;;;;;;2.00;1.37;;;;;;;17.05;74.16;98901.81;5091469;28;20290;-65
2023/10/16 01:21:59;;;;;;;1.03;1.03;;;;;;;17.05;73.48;98900.97;5092000;28;20254;-65
2023/10/16 01:24:29;;;;;;;1.20;1.20;;;;;;;17.00;73.64;98903.03;5092087;28;20206;-65
2023/10/16 01:27:01;;;;;;;0.80;0.80;;;;;;;17.00;73.45;98913.38;5091601;28;20195;-65
2023/10/16 01:29:31;;;;;;;0.77;0.77;;;;;;;16.96;73.28;98911.94;5091243;28;20202;-65
2023/10/16 01:31:59;;;;;;;1.30;1.30;;;;;;;16.96;73.23;98917.94;5091569;28;20298;-65
2023/10/16 01:34:30;;;;;;;0.93;0.93;;;;;;;16.93;73.09;98927.66;5091786;28;20252;-65
2023/10/16 01:37:02;;;;;;;1.07;1.07;;;;;;;16.90;73.03;98939.03;5091463;28;20201;-65
2023/10/16 01:39:49;;;;;;;2.87;1.37;;;;;;;16.80;73.11;98949.13;5091682;28;20195;-65
2023/10/16 01:42:18;;;;;;;1.93;0.97;;;;;;;16.82;73.28;98961.16;5091734;28;20201;-64
2023/10/16 01:44:45;;;;;;;0.80;0.80;;;;;;;16.71;73.35;98965.25;5091289;28;20207;-65
2023/10/16 01:47:15;;;;;;;1.00;1.00;;;;;;;16.79;72.80;98977.72;5091192;28;20686;-64
2023/10/16 01:49:43;;;;;;;0.70;0.70;;;;;;;16.75;72.79;98977.06;5091358;28;20199;-64
2023/10/16 01:52:11;;;;;;;0.97;0.97;;;;;;;16.65;72.55;98960.44;5091286;28;20709;-64
2023/10/16 01:54:40;;;;;;;1.10;1.00;;;;;;;16.67;72.45;98983.66;5091305;28;20191;-64
2023/10/16 01:57:10;;;;;;;0.80;0.80;;;;;;;16.68;71.95;98986.13;5091236;28;20223;-65
2023/10/16 01:59:40;;;;;;;1.00;1.00;;;;;;;16.62;71.16;99006.38;5091058;28;20231;-65
2023/10/16 02:02:09;;;;;;;0.53;0.53;;;;;;;16.59;70.67;99002.25;5089987;28;20695;-64
2023/10/16 02:04:37;;;;;;;0.70;0.70;;;;;;;16.44;70.32;98977.28;5091273;28;20199;-64
2023/10/16 02:07:04;;;;;;;0.77;0.77;;;;;;;16.52;69.80;98995.72;5091174;28;20282;-64
2023/10/16 02:09:31;;;;;;;0.50;0.50;;;;;;;16.53;69.47;99012.09;5091512;28;20276;-65
2023/10/16 02:12:00;;;;;;;0.63;0.63;;;;;;;16.47;68.63;99007.28;5090641;28;20290;-65
2023/10/16 02:14:27;;;;;;;0.60;0.60;;;;;;;16.51;67.77;99013.94;5091313;28;20195;-65
2023/10/16 02:16:54;;;;;;;5.03;0.80;;;;;;;16.49;68.04;99023.53;5091158;28;20659;-64
2023/10/16 02:19:21;;;;;;;1.20;1.20;;;;;;;16.45;67.38;99030.66;5090667;28;20983;-65
2023/10/16 02:21:49;;;;;;;0.40;0.40;;;;;;;16.42;67.75;99030.84;5090684;28;20234;-65
2023/10/16 02:24:16;;;;;;;0.40;0.40;;;;;;;16.39;67.40;99041.38;5090525;28;20683;-65
2023/10/16 02:26:55;;;;;;;0.60;0.60;;;;;;;16.34;67.14;99043.41;5090903;28;20272;-64
2023/10/16 02:29:24;;;;;;;0.77;0.77;;;;;;;16.23;66.88;99045.78;5090747;28;20294;-64
2023/10/16 02:31:51;;;;;;;0.60;0.60;;;;;;;16.32;67.11;99053.00;5090747;28;20192;-66
2023/10/16 02:34:22;;;;;;;0.53;0.53;;;;;;;16.23;67.11;99045.78;5090260;28;20222;-65
2023/10/16 02:36:51;;;;;;;0.63;0.63;;;;;;;16.27;67.06;99052.44;5090884;28;20187;-64
2023/10/16 02:39:35;;;;;;;0.50;0.50;;;;;;;16.30;67.18;99057.44;5090047;28;20275;-64
2023/10/16 02:42:05;;;;;;;0.53;0.53;;;;;;;16.29;67.34;99084.22;5089743;28;20690;-64
2023/10/16 02:44:38;;;;;;;0.40;0.40;;;;;;;16.25;67.28;99080.16;5089940;28;20218;-65
2023/10/16 02:47:06;;;;;;;0.50;0.50;;;;;;;16.17;68.29;99072.84;5090957;28;20199;-64
2023/10/16 02:49:33;;;;;;;0.67;0.67;;;;;;;16.22;69.19;99075.16;5088997;28;20599;-64
2023/10/16 02:52:00;;;;;;;0.50;0.50;;;;;;;16.18;69.89;99084.03;5089588;28;20191;-64
2023/10/16 02:54:26;;;;;;;0.73;0.73;;;;;;;16.15;70.24;99085.03;5089618;28;20209;-64
2023/10/16 02:56:59;;;;;;;0.83;0.83;;;;;;;16.15;70.54;99089.38;5090543;28;20269;-64
2023/10/16 02:59:27;;;;;;;0.80;0.80;;;;;;;16.07;71.08;99076.03;5090253;28;20297;-64
2023/10/16 03:01:56;;;;;;;0.60;0.60;;;;;;;16.12;70.86;99085.19;5090529;28;20231;-64
2023/10/16 03:04:27;;;;;;;0.60;0.60;;;;;;;16.13;69.62;99086.03;5090443;28;20295;-65
2023/10/16 03:06:55;;;;;;;2.30;0.73;;;;;;;16.08;70.56;99098.41;5090637;28;20199;-64
2023/10/16 03:09:31;;;;;;;5.10;0.67;;;;;;;16.08;71.09;99114.75;5090301;28;20219;-65
2023/10/16 03:12:04;;;;;;;0.80;0.80;;;;;;;16.02;71.92;99119.44;5090240;28;20290;-64
2023/10/16 03:14:45;;;;;;;0.60;0.60;;;;;;;15.95;72.23;99128.47;5089792;28;20195;-64
2023/10/16 03:17:19;;;;;;;9.60;1.03;;;;;;;15.93;72.18;99119.97;5090519;28;20571;-64
2023/10/16 03:19:48;;;;;;;0.50;0.50;;;;;;;15.87;71.22;99113.38;5089808;28;20642;-65
2023/10/16 03:22:17;;;;;;;0.60;0.60;;;;;;;15.81;71.33;99120.63;5089514;28;20233;-64
2023/10/16 03:24:45;;;;;;;0.57;0.57;;;;;;;15.72;72.55;99112.50;5089879;28;20195;-65
2023/10/16 03:27:23;;;;;;;0.60;0.60;;;;;;;15.69;73.00;99115.25;5090603;28;20208;-64
2023/10/16 03:29:52;;;;;;;0.77;0.60;;;;;;;15.56;69.96;99119.44;5090200;28;20305;-64
2023/10/16 03:32:21;;;;;;;0.50;0.50;;;;;;;15.54;69.54;99139.31;5089384;28;20282;-65
2023/10/16 03:34:47;;;;;;;0.83;0.83;;;;;;;15.50;69.55;99134.44;5089600;28;20223;-64
2023/10/16 03:37:15;;;;;;;1.50;1.33;;;;;;;15.44;69.25;99147.66;5090020;28;20199;-65
2023/10/16 03:39:44;;;;;;;0.80;0.80;;;;;;;15.35;69.21;99164.44;5089732;28;20238;-65
2023/10/16 03:42:11;;;;;;;0.77;0.77;;;;;;;15.30;69.70;99165.63;5090199;28;20198;-64
2023/10/16 03:44:41;;;;;;;0.70;0.70;;;;;;;15.20;69.96;99144.59;5089856;28;20244;-64
2023/10/16 03:47:09;;;;;;;0.60;0.60;;;;;;;15.24;70.06;99166.78;5089552;28;20277;-64
2023/10/16 03:49:37;;;;;;;0.70;0.70;;;;;;;15.17;70.40;99175.75;5088769;28;20215;-64
2023/10/16 03:52:07;;;;;;;0.70;0.70;;;;;;;15.16;71.09;99176.66;5091397;28;20206;-64
2023/10/16 03:54:36;;;;;;;0.80;0.80;;;;;;;15.13;71.10;99182.00;5094011;28;20578;-64
2023/10/16 03:57:09;;;;;;;4.27;0.97;;;;;;;15.09;70.74;99190.78;5093488;28;20199;-65
2023/10/16 03:59:38;;;;;;;0.87;0.87;;;;;;;15.06;71.21;99203.88;5089771;28;20202;-65
2023/10/16 04:02:07;;;;;;;1.17;0.80;;;;;;;15.01;71.03;99200.69;5093188;28;20195;-65
2023/10/16 04:04:34;;;;;;;0.80;0.80;;;;;;;14.96;71.25;99203.50;5091484;28;20208;-65
2023/10/16 04:07:04;;;;;;;0.97;0.97;;;;;;;14.92;71.24;99214.09;5092048;28;20199;-65
2023/10/16 04:09:33;;;;;;;1.10;1.10;;;;;;;14.79;72.17;99220.78;5093102;28;20238;-65
2023/10/16 04:12:04;;;;;;;1.33;1.30;;;;;;;14.59;72.32;99199.38;5091871;28;20203;-65
2023/10/16 04:17:26;;;;;;;1.33;1.33;;;;;;;14.64;72.37;99218.03;5114326;27;20552;-66
2023/10/16 04:19:53;;;;;;;0.90;0.90;;;;;;;14.62;72.38;99214.69;5126419;28;20193;-65
2023/10/16 04:22:23;;;;;;;1.00;0.90;;;;;;;14.57;72.24;99226.97;5120376;27;20197;-65
2023/10/16 04:24:54;;;;;;;1.87;1.13;;;;;;;14.56;72.39;99225.31;5127785;27;20225;-65
2023/10/16 04:38:54;;;;;;;1.30;1.30;;;;;;;14.38;72.60;99246.84;5065452;28;20221;-66
2023/10/16 04:44:38;;;;;;;1.03;1.03;;;;;;;14.34;71.84;99245.34;5111248;27;20324;-65
2023/10/16 04:47:06;;;;;;;0.87;0.87;;;;;;;14.32;72.04;99249.69;5124647;27;20194;-65
2023/10/16 04:49:36;;;;;;;0.97;0.97;;;;;;;14.39;71.14;99248.50;5126670;28;20194;-65
2023/10/16 04:52:07;;;;;;;1.00;1.00;;;;;;;14.36;71.10;99258.97;5128060;27;20194;-65
2023/10/16 04:54:58;;;;;;;1.37;1.37;;;;;;;14.33;70.86;99253.97;5127846;28;20198;-65
2023/10/16 04:57:53;;;;;;;1.23;1.23;;;;;;;14.35;70.64;99248.72;5127820;28;20212;-66
2023/10/16 05:00:54;;;;;;;5.47;1.60;;;;;;;14.36;70.30;99255.56;5123602;27;20654;-65
2023/10/16 05:03:23;;;;;;;0.90;0.90;;;;;;;14.35;69.44;99262.47;5127703;28;20213;-65
2023/10/16 05:06:02;;;;;;;1.20;1.20;;;;;;;14.35;69.45;99254.72;5127670;27;20194;-65
2023/10/16 05:08:38;;;;;;;0.70;0.70;;;;;;;14.28;69.42;99250.72;5127380;27;20194;-65
2023/10/16 05:13:56;;;;;;;1.10;1.10;;;;;;;14.36;68.79;99279.59;5098932;28;20594;-66
2023/10/16 05:16:32;;;;;;;0.90;0.90;;;;;;;14.20;68.47;99266.56;5125613;27;20233;-65
2023/10/16 05:22:03;;;;;;;0.70;0.70;;;;;;;14.48;67.55;99314.28;5118332;28;20352;-65
2023/10/16 06:14:13;;;;;;;1.00;1.00;;;;;;;14.18;63.92;99450.59;5111056;27;20201;-63
2023/10/16 06:16:40;;;;;;;0.80;0.80;;;;;;;14.17;64.17;99465.25;5111526;27;20781;-64
2023/10/16 06:19:14;;;;;;;0.60;0.60;;;;;;;14.11;63.93;99455.19;5112269;28;20692;-64
2023/10/16 06:21:46;;;;;;;2.73;0.80;;;;;;;14.15;64.66;99468.78;5111789;28;20201;-65
2023/10/16 06:24:25;;;;;;;1.10;1.10;;;;;;;14.15;64.78;99481.69;5112219;28;20586;-64
2023/10/16 06:26:53;;;;;;;2.57;1.60;;;;;;;14.16;64.53;99502.22;5112424;27;20256;-64
2023/10/16 06:29:20;;;;;;;4.47;0.97;;;;;;;14.22;63.35;99485.66;5107151;27;20195;-64
2023/10/16 06:31:53;;;;;;;4.13;1.30;;;;;;;14.21;63.41;99491.72;5099083;27;20288;-65
2023/10/16 06:34:20;;;;;;;0.90;0.90;;;;;;;14.09;62.83;99482.75;5109716;28;20203;-66
2023/10/16 06:36:47;;;;;;;4.63;0.90;;;;;;;14.17;62.69;99515.97;5107335;28;20648;-65
2023/10/16 06:39:27;;;;;;;3.60;1.47;;;;;;;14.21;62.50;99522.66;5108452;28;20213;-64
2023/10/16 06:41:56;;;;;;;1.40;0.97;;;;;;;14.19;62.19;99514.13;5100865;28;20747;-63
2023/10/16 06:44:28;;;;;;;1.07;1.07;;;;;;;14.07;62.60;99500.03;5112004;27;20202;-64
2023/10/16 06:46:58;;;;;;;0.70;0.70;;;;;;;14.27;62.05;99543.03;5106500;27;20232;-64
2023/10/16 06:49:27;;;;;;;1.80;1.27;;;;;;;14.31;62.10;99538.59;5105074;28;20241;-66
2023/10/16 06:51:56;;;;;;;1.33;1.27;;;;;;;14.34;61.20;99529.00;5094858;28;20606;-66
2023/10/16 06:54:24;;;;;;;0.80;0.80;;;;;;;14.37;60.58;99533.19;5097412;28;20198;-67
2023/10/16 06:56:52;;;;;;;1.30;1.30;;;;;;;14.34;60.94;99543.63;5111465;27;20304;-66
2023/10/16 06:59:21;;;;;;;2.10;1.43;;;;;;;14.35;60.34;99546.13;5110821;27;20194;-67
2023/10/16 07:01:50;;;;;;;0.80;0.80;;;;;;;14.35;59.99;99540.97;5097180;27;20294;-66
2023/10/16 07:04:19;;;;;;;1.40;1.40;;;;;;;14.35;60.12;99551.28;5111326;28;20198;-66
2023/10/16 07:06:48;;;;;;;0.80;0.80;;;;;;;14.40;58.70;99558.84;5111875;28;20256;-66
2023/10/16 07:09:16;;;;;;;0.90;0.90;;;;;;;14.39;58.26;99552.84;5105340;28;20285;-66
2023/10/16 07:11:43;;;;;;;1.00;1.00;;;;;;;14.44;57.40;99571.53;5102890;28;20261;-66
2023/10/16 07:14:17;;;;;;;9.50;1.30;;;;;;;14.48;56.55;99562.75;5093587;28;20227;-66
2023/10/16 07:16:45;;;;;;;1.17;1.07;;;;;;;14.46;57.59;99569.72;5100592;28;20231;-66
2023/10/16 07:19:16;;;;;;;0.70;0.70;;;;;;;14.52;56.56;99566.88;5101790;27;20209;-66
2023/10/16 07:21:48;;;;;;;0.60;0.60;;;;;;;14.53;55.93;99576.31;5108279;28;20250;-66
2023/10/16 07:24:15;;;;;;;0.80;0.80;;;;;;;14.53;55.88;99576.31;5104484;28;20195;-66
2023/10/16 07:26:42;;;;;;;1.57;0.80;;;;;;;14.53;55.34;99586.63;5100678;27;20192;-66
2023/10/16 07:29:09;;;;;;;0.80;0.80;;;;;;;14.60;55.07;99588.00;5110084;28;20207;-66
2023/10/16 07:31:36;;;;;;;0.63;0.63;;;;;;;14.63;54.98;99599.97;5098899;28;20540;-66
2023/10/16 07:34:05;;;;;;;0.60;0.60;;;;;;;14.65;54.21;99593.00;5096347;28;20210;-66
2023/10/16 07:36:32;;;;;;;0.93;0.93;;;;;;;14.68;53.68;99595.44;5099975;28;20652;-67
2023/10/16 07:38:59;;;;;;;1.10;0.93;;;;;;;14.71;54.38;99606.47;5107019;28;20209;-66
2023/10/16 07:41:26;;;;;;;1.00;1.00;;;;;;;14.73;53.42;99609.81;5105582;28;20205;-66
2023/10/16 07:43:56;;;;;;;0.80;0.80;;;;;;;14.77;52.91;99617.41;5093182;28;20260;-66
2023/10/16 07:46:30;;;;;;;0.90;0.90;;;;;;;14.81;52.97;99617.22;5104460;28;20230;-66
2023/10/16 07:49:01;;;;;;;0.60;0.60;;;;;;;14.69;52.48;99603.13;5106116;28;20236;-66
2023/10/16 07:51:29;;;;;;;0.80;0.80;;;;;;;14.82;51.91;99618.06;5098856;28;20785;-66
2023/10/16 07:54:00;;;;;;;0.83;0.83;;;;;;;14.89;50.84;99628.06;5101591;27;20614;-66
2023/10/16 07:56:28;;;;;;;0.70;0.70;;;;;;;14.89;51.71;99619.47;5097312;28;20222;-66
2023/10/16 07:59:07;;;;;;;0.90;0.90;;;;;;;14.91;50.27;99618.50;5109812;27;20206;-66
2023/10/16 08:01:41;;;;;;;0.73;0.73;;;;;;;15.02;49.96;99634.34;5103259;28;20294;-66
2023/10/16 08:04:19;;;;;;;0.70;0.70;;;;;;;15.08;49.86;99615.16;5103137;27;20198;-66
2023/10/16 08:06:48;;;;;;;0.83;0.83;;;;;;;15.15;49.20;99642.41;5103596;28;20797;-66
2023/10/16 08:09:48;;;;;;;1.00;1.00;;;;;;;15.17;48.56;99625.06;5104184;28;20202;-67
2023/10/16 08:12:35;;;;;;;0.70;0.70;;;;;;;15.27;47.59;99631.50;5103910;28;20274;-67
2023/10/16 08:15:08;;;;;;;0.70;0.70;;;;;;;15.36;48.36;99631.06;5107650;28;20579;-67
2023/10/16 08:17:36;;;;;;;1.13;1.13;;;;;;;15.49;47.27;99621.03;5107511;28;20222;-67
2023/10/16 08:20:07;;;;;;;0.80;0.80;;;;;;;15.54;47.37;99627.66;5107740;28;20209;-66
2023/10/16 08:22:35;;;;;;;0.70;0.70;;;;;;;15.37;46.97;99591.44;5107199;28;20572;-67
2023/10/16 08:25:04;;;;;;;1.70;0.77;;;;;;;15.69;45.62;99621.78;5101463;28;20198;-67
2023/10/16 08:27:47;;;;;;;0.67;0.67;;;;;;;15.75;46.04;99628.41;5102363;28;20255;-66
2023/10/16 08:30:32;;;;;;;0.70;0.70;;;;;;;15.86;45.11;99643.41;5106712;28;20207;-67
2023/10/16 08:33:06;;;;;;;0.53;0.53;;;;;;;15.99;45.03;99636.75;5095743;28;20213;-66
2023/10/16 08:35:38;;;;;;;0.90;0.90;;;;;;;16.08;44.23;99641.47;5098056;28;20200;-68
2023/10/16 08:38:11;;;;;;;0.60;0.60;;;;;;;16.21;43.60;99652.91;5108028;28;20224;-67
2023/10/16 08:40:43;;;;;;;0.50;0.50;;;;;;;16.29;43.58;99654.19;5090670;28;20667;-67
2023/10/16 08:43:10;;;;;;;0.63;0.50;;;;;;;16.35;43.16;99662.56;5090876;28;20282;-66
2023/10/16 08:45:47;;;;;;;0.60;0.60;;;;;;;16.49;42.41;99658.38;5105634;28;20639;-66
2023/10/16 08:48:17;;;;;;;0.60;0.60;;;;;;;16.49;41.80;99648.00;5109843;28;20301;-67
2023/10/16 08:50:52;;;;;;;0.60;0.60;;;;;;;16.54;41.68;99656.38;5109548;28;20195;-67
2023/10/16 08:53:32;;;;;;;0.53;0.53;;;;;;;16.60;41.88;99663.88;5110478;28;20202;-67
2023/10/16 08:56:03;;;;;;;0.77;0.77;;;;;;;16.66;41.06;99660.16;5105249;28;20570;-66
2023/10/16 08:58:34;;;;;;;9.93;0.60;;;;;;;16.62;40.60;99664.63;5108505;28;20195;-67
2023/10/16 09:01:01;;;;;;;0.60;0.60;;;;;;;16.60;41.12;99668.22;5104567;28;20199;-66
2023/10/16 09:03:29;;;;;;;0.57;0.57;;;;;;;16.62;40.91;99668.97;5112227;28;20205;-67
2023/10/16 09:06:01;;;;;;;0.40;0.40;;;;;;;16.55;40.04;99663.25;5114179;28;20199;-67
2023/10/16 09:08:30;;;;;;;0.60;0.60;;;;;;;16.62;42.27;99663.78;5114651;28;20665;-67
2023/10/16 09:10:58;;;;;;;0.50;0.50;;;;;;;16.94;39.74;99662.13;5114116;28;20222;-67
2023/10/16 09:13:26;;;;;;;0.50;0.50;;;;;;;17.29;39.23;99655.94;5108116;28;20504;-66
2023/10/16 09:15:53;;;;;;;1.23;0.60;;;;;;;17.63;38.39;99650.66;5113243;28;20218;-67
2023/10/16 09:18:21;;;;;;;0.53;0.50;;;;;;;18.07;36.71;99648.16;5113446;28;20222;-67
2023/10/16 09:20:49;;;;;;;0.37;0.37;;;;;;;18.25;35.17;99664.47;5113859;28;20195;-67
2023/10/16 09:23:23;;;;;;;4.43;1.00;;;;;;;18.53;35.56;99669.75;5113631;27;20196;-67
2023/10/16 09:25:56;;;;;;;0.60;0.60;;;;;;;18.68;35.59;99650.66;5093911;28;20211;-67
2023/10/16 09:28:24;;;;;;;0.73;0.73;;;;;;;18.88;34.10;99654.66;5110022;28;20202;-67
2023/10/16 09:30:52;;;;;;;0.63;0.63;;;;;;;19.03;34.51;99647.72;5113200;27;20203;-67
2023/10/16 09:33:20;;;;;;;1.40;0.70;;;;;;;19.20;33.79;99658.75;5112236;28;20208;-67
2023/10/16 09:35:47;;;;;;;0.40;0.40;;;;;;;19.37;35.11;99639.53;5113203;28;20629;-65
2023/10/16 09:38:18;;;;;;;0.60;0.60;;;;;;;19.46;33.72;99644.16;5113515;28;20696;-65
2023/10/16 09:41:13;;;;;;;0.40;0.40;;;;;;;19.55;33.36;99635.78;5113589;28;20195;-66
2023/10/16 09:43:40;;;;;;;0.70;0.70;;;;;;;19.68;33.31;99626.28;5112537;28;20207;-67
2023/10/16 09:46:48;;;;;;;0.43;0.43;;;;;;;19.76;32.36;99629.25;5106869;27;20198;-66
2023/10/16 09:49:21;;;;;;;0.70;0.70;;;;;;;19.77;31.64;99630.88;5112052;27;20730;-65
2023/10/16 09:51:48;;;;;;;0.40;0.40;;;;;;;19.94;30.42;99622.00;5105570;28;20229;-66
2023/10/16 09:54:15;;;;;;;0.30;0.30;;;;;;;20.07;30.02;99627.22;5093438;28;20199;-66
2023/10/16 09:56:48;;;;;;;0.40;0.40;;;;;;;20.13;28.64;99632.06;5096532;27;20219;-66
2023/10/16 09:59:26;;;;;;;2.97;0.50;;;;;;;20.10;28.27;99629.63;5104686;28;20662;-67
2023/10/16 10:01:56;;;;;;;0.70;0.70;;;;;;;20.21;28.69;99628.00;5099459;27;20217;-67
2023/10/16 10:04:25;;;;;;;0.50;0.50;;;;;;;20.33;28.32;99619.41;5110246;28;20226;-67
2023/10/16 10:06:57;;;;;;;0.40;0.40;;;;;;;20.53;27.38;99610.28;5111461;27;20301;-67
2023/10/16 10:09:41;;;;;;;0.40;0.40;;;;;;;20.61;29.28;99615.81;5110801;27;20194;-68
2023/10/16 10:12:23;;;;;;;0.50;0.50;;;;;;;20.78;28.23;99610.25;5113287;27;20233;-68
2023/10/16 10:15:01;;;;;;;0.40;0.40;;;;;;;20.77;26.85;99613.81;5092265;28;20207;-67
2023/10/16 10:17:29;;;;;;;0.30;0.30;;;;;;;20.89;27.44;99622.56;5105684;28;20250;-67
2023/10/16 10:20:08;;;;;;;0.50;0.50;;;;;;;20.76;25.59;99603.50;5111933;28;20243;-67
2023/10/16 10:22:36;;;;;;;0.40;0.40;;;;;;;20.81;26.15;99610.03;5112710;28;20719;-67
2023/10/16 10:25:11;;;;;;;0.50;0.50;;;;;;;20.87;26.46;99607.00;5112904;28;20272;-66
2023/10/16 10:27:43;;;;;;;0.43;0.43;;;;;;;20.83;26.21;99604.75;5112223;28;20671;-67
2023/10/16 10:30:17;;;;;;;0.40;0.40;;;;;;;20.95;27.32;99612.56;5106474;28;20195;-67
2023/10/16 10:32:45;;;;;;;3.20;0.40;;;;;;;20.89;25.06;99602.56;5112309;28;20209;-67
2023/10/16 10:35:27;;;;;;;0.40;0.40;;;;;;;20.97;26.34;99614.22;5112850;28;20674;-67
2023/10/16 10:38:18;;;;;;;0.50;0.50;;;;;;;20.92;25.35;99602.34;5110225;28;20214;-67
2023/10/16 10:41:14;;;;;;;0.40;0.40;;;;;;;20.93;25.59;99597.97;5096305;28;20286;-67
2023/10/16 10:43:47;;;;;;;0.50;0.50;;;;;;;20.91;25.68;99605.88;5095157;28;20202;-67
2023/10/16 10:46:24;;;;;;;0.40;0.40;;;;;;;20.92;25.65;99604.94;5112539;28;20292;-67
2023/10/16 10:48:54;;;;;;;1.57;0.60;;;;;;;20.89;25.25;99602.56;5112797;28;20231;-67
2023/10/16 10:51:21;;;;;;;0.40;0.40;;;;;;;20.92;25.06;99596.28;5106237;28;20556;-67
2023/10/16 10:53:55;;;;;;;4.80;0.70;;;;;;;20.95;25.77;99594.31;5092014;28;20252;-67
2023/10/16 10:56:22;;;;;;;0.40;0.40;;;;;;;20.94;26.32;99595.22;5097174;28;20199;-67
2023/10/16 10:58:51;;;;;;;0.40;0.40;;;;;;;20.99;25.25;99596.69;5107725;28;20231;-67
2023/10/16 11:01:26;;;;;;;0.43;0.43;;;;;;;20.92;24.79;99586.69;5108480;28;20691;-67
2023/10/16 11:03:55;;;;;;;0.50;0.50;;;;;;;20.92;25.35;99589.31;5096394;28;20632;-67
2023/10/16 11:06:31;;;;;;;0.50;0.50;;;;;;;20.97;25.23;99582.94;5093236;28;20587;-67
2023/10/16 11:09:11;;;;;;;0.30;0.30;;;;;;;21.12;25.82;99582.72;5101853;28;20190;-67
2023/10/16 11:11:40;;;;;;;0.40;0.40;;;;;;;21.01;25.06;99573.94;5109536;28;20659;-67
2023/10/16 11:14:08;;;;;;;0.40;0.40;;;;;;;21.04;24.11;99578.94;5098303;28;20631;-66
2023/10/16 11:16:42;;;;;;;0.53;0.53;;;;;;;21.09;24.82;99582.09;5091761;28;20223;-67
2023/10/16 11:19:09;;;;;;;0.40;0.40;;;;;;;21.14;24.95;99582.59;5093030;28;20218;-67
2023/10/16 11:21:43;;;;;;;0.40;0.40;;;;;;;21.13;25.04;99575.75;5107837;28;20199;-67
2023/10/16 11:24:11;;;;;;;0.50;0.50;;;;;;;21.13;24.71;99562.72;5108851;28;20686;-67
2023/10/16 11:26:39;;;;;;;0.40;0.40;;;;;;;21.24;24.55;99583.63;5110986;28;20195;-67
2023/10/16 11:29:06;;;;;;;1.47;0.80;;;;;;;21.16;24.96;99573.75;5111013;28;20194;-67
2023/10/16 11:31:40;;;;;;;0.40;0.40;;;;;;;21.10;24.89;99579.38;5111444;28;20206;-67
2023/10/16 11:34:07;;;;;;;0.50;0.50;;;;;;;21.15;24.86;99581.69;5111281;28;20775;-68
2023/10/16 11:36:35;;;;;;;0.50;0.50;;;;;;;21.22;24.93;99591.56;5111205;28;20198;-67
2023/10/16 11:39:02;;;;;;;0.43;0.43;;;;;;;21.12;24.31;99584.50;5106461;28;20590;-66
2023/10/16 11:41:32;;;;;;;0.40;0.40;;;;;;;21.18;24.61;99584.91;5104984;28;20202;-67
2023/10/16 11:44:01;;;;;;;0.40;0.40;;;;;;;21.15;24.51;99579.06;5111579;28;20194;-67
2023/10/16 11:46:31;;;;;;;0.57;0.57;;;;;;;21.22;24.48;99590.75;5106556;28;20286;-67
2023/10/16 11:49:17;;;;;;;0.40;0.40;;;;;;;21.28;24.60;99592.91;5091102;28;20192;-67
2023/10/16 11:51:46;;;;;;;0.50;0.50;;;;;;;21.35;24.71;99583.72;5097967;28;20238;-67
2023/10/16 11:54:18;;;;;;;0.47;0.47;;;;;;;21.29;23.59;99589.38;5107660;28;20249;-67
2023/10/16 11:56:47;;;;;;;2.00;0.50;;;;;;;21.16;23.38;99592.00;5091045;28;20195;-66
2023/10/16 11:59:15;;;;;;;0.73;0.50;;;;;;;21.16;24.35;99593.78;5090779;28;20317;-67
2023/10/16 12:01:43;;;;;;;0.50;0.50;;;;;;;21.04;24.18;99582.38;5097090;28;20618;-67
2023/10/16 12:04:12;;;;;;;0.60;0.60;;;;;;;21.11;25.27;99598.47;5110165;28;20201;-67
2023/10/16 12:06:44;;;;;;;0.40;0.40;;;;;;;21.08;24.27;99603.88;5091057;28;20214;-67
2023/10/16 12:09:13;;;;;;;0.50;0.50;;;;;;;20.89;24.03;99580.88;5095787;28;20191;-67
2023/10/16 12:11:42;;;;;;;0.40;0.40;;;;;;;21.10;24.34;99608.06;5098112;28;20194;-67
2023/10/16 12:14:13;;;;;;;0.50;0.50;;;;;;;21.09;24.95;99603.81;5103666;28;20281;-67
2023/10/16 12:16:41;;;;;;;0.47;0.47;;;;;;;21.08;24.44;99616.91;5109833;28;20218;-67
2023/10/16 12:19:09;;;;;;;0.60;0.60;;;;;;;21.08;24.60;99607.31;5110904;28;20225;-68
2023/10/16 12:21:37;;;;;;;0.50;0.50;;;;;;;21.07;25.37;99599.59;5110571;28;20289;-67
2023/10/16 12:24:05;;;;;;;0.50;0.50;;;;;;;21.01;24.23;99605.22;5099061;28;20202;-66
2023/10/16 12:26:32;;;;;;;0.50;0.50;;;;;;;21.07;24.69;99615.22;5107213;28;20282;-67
2023/10/16 12:28:59;;;;;;;0.60;0.60;;;;;;;21.04;24.50;99600.63;5090767;28;20225;-67
2023/10/16 12:31:26;;;;;;;0.70;0.70;;;;;;;21.08;25.21;99611.69;5090675;28;20202;-66
2023/10/16 12:33:55;;;;;;;0.60;0.60;;;;;;;21.02;25.41;99602.53;5090629;28;20256;-67
2023/10/16 12:36:23;;;;;;;0.60;0.60;;;;;;;21.02;24.95;99596.47;5106800;28;20212;-68
2023/10/16 12:38:53;;;;;;;0.77;0.77;;;;;;;21.01;24.97;99595.63;5114099;28;20225;-66
2023/10/16 12:41:20;;;;;;;0.50;0.50;;;;;;;20.98;25.07;99605.44;5109023;28;20705;-65
2023/10/16 12:43:47;;;;;;;0.40;0.40;;;;;;;20.99;25.19;99607.97;5100112;27;20191;-68
2023/10/16 12:46:14;;;;;;;0.53;0.53;;;;;;;21.00;25.56;99608.78;5095453;28;20215;-68
2023/10/16 12:48:43;;;;;;;0.50;0.50;;;;;;;21.04;25.07;99605.00;5109935;28;20201;-68
2023/10/16 12:51:10;;;;;;;0.60;0.60;;;;;;;21.03;25.38;99605.97;5113589;28;20232;-68
2023/10/16 12:53:38;;;;;;;1.10;0.70;;;;;;;21.00;25.13;99609.63;5114164;28;20267;-68
2023/10/16 12:56:07;;;;;;;0.60;0.60;;;;;;;21.00;25.50;99595.75;5109494;28;20199;-67
2023/10/16 12:58:35;;;;;;;0.50;0.50;;;;;;;21.12;25.49;99613.19;5112434;28;20226;-68
2023/10/16 13:01:04;;;;;;;0.50;0.50;;;;;;;21.12;24.93;99613.19;5113097;28;20232;-68
2023/10/16 13:03:33;;;;;;;0.40;0.40;;;;;;;21.05;25.10;99617.13;5110023;27;20210;-68
2023/10/16 13:06:05;;;;;;;0.60;0.60;;;;;;;21.06;25.03;99614.41;5111521;28;20563;-68